Time;durP1;ratioP1;P1;durP2;ratioP2;P2;SDS_P1;SDS_P2;PMS_P1;PMS_P2;Temp;Humidity;BMP_temperature;BMP_pressure;BME280_temperature;BME280_humidity;BME280_pressure;Samples;Min_cycle;Max_cycle;Signal;HPM_P1;HPM_P2
2023/07/06 00:02:26;;;;;;;;;;;;;;;;;;7370020;19;1902;-63
2023/07/06 00:04:54;;;;;;;;;;;;;;;;;;7365935;19;1873;-64
2023/07/06 00:07:23;;;;;;;;;;;;;;;;;;7366270;19;1995;-63
2023/07/06 00:09:51;;;;;;;;;;;;;;;;;;7368025;19;1731;-64
2023/07/06 00:12:22;;;;;;;;;;;;;;;;;;7368534;19;1653;-64
2023/07/06 00:14:50;;;;;;;;;;;;;;;;;;7367347;19;1626;-63
2023/07/06 00:17:18;;;;;;;;;;;;;;;;;;7365907;19;809;-64
2023/07/06 00:19:47;;;;;;;;;;;;;;;;;;7365890;19;875;-63
2023/07/06 00:22:15;;;;;;;;;;;;;;;;;;7366076;19;833;-63
2023/07/06 00:24:46;;;;;;;;;;;;;;;;;;7362905;19;1854;-63
2023/07/06 00:27:15;;;;;;;;;;;;;;;;;;7368482;19;1957;-63
2023/07/06 00:29:56;;;;;;;;;;;;;;;;;;7369644;19;1242;-64
2023/07/06 00:32:28;;;;;;;;;;;;;;;;;;7366981;19;1436;-64
2023/07/06 00:34:56;;;;;;;;;;;;;;;;;;7365471;19;1666;-64
2023/07/06 00:37:24;;;;;;;;;;;;;;;;;;7364398;19;836;-64
2023/07/06 00:39:53;;;;;;;;;;;;;;;;;;7363149;19;879;-63
2023/07/06 00:42:22;;;;;;;;;;;;;;;;;;7366078;19;1928;-63
2023/07/06 00:44:51;;;;;;;;;;;;;;;;;;7365180;19;1845;-63
2023/07/06 00:47:20;;;;;;;;;;;;;;;;;;7366049;19;816;-63
2023/07/06 00:49:48;;;;;;;;;;;;;;;;;;7363147;19;840;-63
2023/07/06 00:52:17;;;;;;;;;;;;;;;;;;7369363;19;1985;-64
2023/07/06 00:54:45;;;;;;;;;;;;;;;;;;7366497;19;1690;-63
2023/07/06 00:57:13;;;;;;;;;;;;;;;;;;7365214;19;855;-62
2023/07/06 00:59:42;;;;;;;;;;;;;;;;;;7366512;19;1588;-63
2023/07/06 01:02:10;;;;;;;;;;;;;;;;;;7363692;19;842;-63
2023/07/06 01:04:39;;;;;;;;;;;;;;;;;;7361273;19;1853;-63
2023/07/06 01:07:07;;;;;;;;;;;;;;;;;;7362979;19;1736;-63
2023/07/06 01:09:35;;;;;;;;;;;;;;;;;;7367393;19;1722;-62
2023/07/06 01:12:04;;;;;;;;;;;;;;;;;;7364881;19;1943;-62
2023/07/06 01:14:32;;;;;;;;;;;;;;;;;;7365724;19;1484;-65
2023/07/06 01:17:00;;;;;;;;;;;;;;;;;;7364697;19;806;-65
2023/07/06 01:19:28;;;;;;;;;;;;;;;;;;7363480;19;1681;-65
2023/07/06 01:21:57;;;;;;;;;;;;;;;;;;7367200;19;1462;-63
2023/07/06 01:24:26;;;;;;;;;;;;;;;;;;7364322;19;2016;-64
2023/07/06 01:26:54;;;;;;;;;;;;;;;;;;7367232;19;1483;-65
2023/07/06 01:29:22;;;;;;;;;;;;;;;;;;7362091;19;814;-64
2023/07/06 01:31:50;;;;;;;;;;;;;;;;;;7366335;19;1799;-65
2023/07/06 01:34:20;;;;;;;;;;;;;;;;;;7364093;19;1680;-65
2023/07/06 01:36:49;;;;;;;;;;;;;;;;;;7364674;19;803;-64
2023/07/06 01:39:17;;;;;;;;;;;;;;;;;;7361916;19;1761;-65
2023/07/06 01:41:45;;;;;;;;;;;;;;;;;;7367066;19;1679;-65
2023/07/06 01:44:13;;;;;;;;;;;;;;;;;;7364974;19;1849;-65
2023/07/06 01:46:42;;;;;;;;;;;;;;;;;;7362265;19;836;-65
2023/07/06 01:49:10;;;;;;;;;;;;;;;;;;7365467;19;1702;-63
2023/07/06 01:51:39;;;;;;;;;;;;;;;;;;7365402;19;1757;-62
2023/07/06 01:54:07;;;;;;;;;;;;;;;;;;7363593;19;1489;-63
2023/07/06 01:56:35;;;;;;;;;;;;;;;;;;7369910;19;1116;-63
2023/07/06 01:59:03;;;;;;;;;;;;;;;;;;7369570;19;765;-65
2023/07/06 02:01:32;;;;;;;;;;;;;;;;;;7373769;19;1598;-63
2023/07/06 02:04:00;;;;;;;;;;;;;;;;;;7373073;19;1457;-63
2023/07/06 02:06:28;;;;;;;;;;;;;;;;;;7368734;19;809;-62
2023/07/06 02:08:56;;;;;;;;;;;;;;;;;;7371103;19;1760;-62
2023/07/06 02:11:25;;;;;;;;;;;;;;;;;;7373851;19;1677;-63
2023/07/06 02:13:53;;;;;;;;;;;;;;;;;;7373447;19;1813;-62
2023/07/06 02:16:21;;;;;;;;;;;;;;;;;;7370923;19;1482;-65
2023/07/06 02:18:49;;;;;;;;;;;;;;;;;;7368624;19;848;-62
2023/07/06 02:21:17;;;;;;;;;;;;;;;;;;7368335;19;820;-63
2023/07/06 02:23:46;;;;;;;;;;;;;;;;;;7369908;19;1800;-63
2023/07/06 02:26:14;;;;;;;;;;;;;;;;;;7367293;19;1862;-63
2023/07/06 02:28:42;;;;;;;;;;;;;;;;;;7371154;19;1476;-63
2023/07/06 02:31:11;;;;;;;;;;;;;;;;;;7368040;19;845;-64
2023/07/06 02:33:39;;;;;;;;;;;;;;;;;;7366915;19;2013;-64
2023/07/06 02:36:07;;;;;;;;;;;;;;;;;;7370246;19;1504;-63
2023/07/06 02:38:36;;;;;;;;;;;;;;;;;;7367813;19;952;-64
2023/07/06 02:41:05;;;;;;;;;;;;;;;;;;7367858;19;1730;-63
2023/07/06 02:43:34;;;;;;;;;;;;;;;;;;7372097;19;1937;-63
2023/07/06 02:46:02;;;;;;;;;;;;;;;;;;7369550;19;1936;-62
2023/07/06 02:48:30;;;;;;;;;;;;;;;;;;7367611;19;837;-63
2023/07/06 02:50:58;;;;;;;;;;;;;;;;;;7369682;19;1948;-63
2023/07/06 02:53:27;;;;;;;;;;;;;;;;;;7369685;19;1484;-64
2023/07/06 02:55:55;;;;;;;;;;;;;;;;;;7367483;19;825;-63
2023/07/06 02:58:23;;;;;;;;;;;;;;;;;;7366503;19;1705;-63
2023/07/06 03:00:52;;;;;;;;;;;;;;;;;;7369941;19;1587;-63
2023/07/06 03:03:20;;;;;;;;;;;;;;;;;;7370419;19;1489;-63
2023/07/06 03:05:49;;;;;;;;;;;;;;;;;;7364435;19;1881;-63
2023/07/06 03:08:17;;;;;;;;;;;;;;;;;;7365608;19;1580;-63
2023/07/06 03:10:46;;;;;;;;;;;;;;;;;;7369559;19;1613;-64
2023/07/06 03:13:14;;;;;;;;;;;;;;;;;;7368507;19;1388;-64
2023/07/06 03:15:43;;;;;;;;;;;;;;;;;;7366969;19;829;-64
2023/07/06 03:18:13;;;;;;;;;;;;;;;;;;7364655;19;1714;-63
2023/07/06 03:20:41;;;;;;;;;;;;;;;;;;7372431;19;1531;-63
2023/07/06 03:23:09;;;;;;;;;;;;;;;;;;7364324;19;1635;-63
2023/07/06 03:25:37;;;;;;;;;;;;;;;;;;7369352;19;1845;-64
2023/07/06 03:28:06;;;;;;;;;;;;;;;;;;7370311;19;1795;-63
2023/07/06 03:30:34;;;;;;;;;;;;;;;;;;7369601;19;1564;-63
2023/07/06 03:33:02;;;;;;;;;;;;;;;;;;7370152;19;1321;-62
2023/07/06 03:35:30;;;;;;;;;;;;;;;;;;7367566;19;824;-63
2023/07/06 03:37:59;;;;;;;;;;;;;;;;;;7365746;19;813;-63
2023/07/06 03:40:29;;;;;;;;;;;;;;;;;;7365336;19;856;-62
2023/07/06 03:42:57;;;;;;;;;;;;;;;;;;7366759;19;1284;-62
2023/07/06 03:45:26;;;;;;;;;;;;;;;;;;7370456;19;1838;-61
2023/07/06 03:47:54;;;;;;;;;;;;;;;;;;7371219;19;1632;-61
2023/07/06 03:50:23;;;;;;;;;;;;;;;;;;7366183;19;1882;-61
2023/07/06 03:52:51;;;;;;;;;;;;;;;;;;7371013;19;1415;-62
2023/07/06 03:55:19;;;;;;;;;;;;;;;;;;7367338;19;1932;-60
2023/07/06 03:57:49;;;;;;;;;;;;;;;;;;7369852;19;1761;-61
2023/07/06 04:00:20;;;;;;;;;;;;;;;;;;7367938;19;1866;-61
2023/07/06 04:02:48;;;;;;;;;;;;;;;;;;7370791;19;1470;-62
2023/07/06 04:05:17;;;;;;;;;;;;;;;;;;7369272;19;1869;-63
2023/07/06 04:07:45;;;;;;;;;;;;;;;;;;7370244;19;1766;-61
2023/07/06 04:10:13;;;;;;;;;;;;;;;;;;7367544;19;1858;-65
2023/07/06 04:12:41;;;;;;;;;;;;;;;;;;7369532;19;1987;-63
2023/07/06 04:15:10;;;;;;;;;;;;;;;;;;7369241;19;1470;-61
2023/07/06 04:17:39;;;;;;;;;;;;;;;;;;7367076;19;792;-59
2023/07/06 04:20:14;;;;;;;;;;;;;;;;;;7362981;19;1917;-61
2023/07/06 04:22:42;;;;;;;;;;;;;;;;;;7369349;19;1398;-55
2023/07/06 04:25:10;;;;;;;;;;;;;;;;;;7369544;19;1868;-58
2023/07/06 04:27:38;;;;;;;;;;;;;;;;;;7369230;19;1631;-56
2023/07/06 04:30:07;;;;;;;;;;;;;;;;;;7369068;19;1720;-55
2023/07/06 04:32:35;;;;;;;;;;;;;;;;;;7366515;19;824;-61
2023/07/06 04:35:03;;;;;;;;;;;;;;;;;;7365802;19;818;-60
2023/07/06 04:37:31;;;;;;;;;;;;;;;;;;7365613;19;808;-59
2023/07/06 04:39:59;;;;;;;;;;;;;;;;;;7365278;19;2000;-61
2023/07/06 04:42:27;;;;;;;;;;;;;;;;;;7367926;19;1600;-62
2023/07/06 04:44:56;;;;;;;;;;;;;;;;;;7366221;19;1842;-61
2023/07/06 04:47:24;;;;;;;;;;;;;;;;;;7365580;19;821;-61
2023/07/06 04:49:52;;;;;;;;;;;;;;;;;;7364974;19;1696;-60
2023/07/06 04:52:21;;;;;;;;;;;;;;;;;;7367206;19;1666;-60
2023/07/06 04:54:50;;;;;;;;;;;;;;;;;;7363488;19;1835;-60
2023/07/06 04:57:18;;;;;;;;;;;;;;;;;;7368380;19;1231;-61
2023/07/06 04:59:46;;;;;;;;;;;;;;;;;;7364856;19;1758;-63
2023/07/06 05:02:14;;;;;;;;;;;;;;;;;;7367697;19;1663;-61
2023/07/06 05:04:42;;;;;;;;;;;;;;;;;;7363145;19;1347;-61
2023/07/06 05:07:11;;;;;;;;;;;;;;;;;;7363935;19;1841;-61
2023/07/06 05:09:41;;;;;;;;;;;;;;;;;;7367940;19;1469;-60
2023/07/06 05:12:09;;;;;;;;;;;;;;;;;;7367221;19;2090;-60
2023/07/06 05:14:38;;;;;;;;;;;;;;;;;;7362857;19;1748;-62
2023/07/06 05:17:06;;;;;;;;;;;;;;;;;;7367872;19;1803;-61
2023/07/06 05:19:34;;;;;;;;;;;;;;;;;;7367025;19;1253;-61
2023/07/06 05:22:04;;;;;;;;;;;;;;;;;;7364157;19;876;-61
2023/07/06 05:24:32;;;;;;;;;;;;;;;;;;7362024;19;1330;-59
2023/07/06 05:27:00;;;;;;;;;;;;;;;;;;7360141;19;1850;-60
2023/07/06 05:29:28;;;;;;;;;;;;;;;;;;7364733;19;1863;-60
2023/07/06 05:31:57;;;;;;;;;;;;;;;;;;7374983;19;1658;-59
2023/07/06 05:34:25;;;;;;;;;;;;;;;;;;7371212;19;1810;-61
2023/07/06 05:36:53;;;;;;;;;;;;;;;;;;7373030;19;1699;-59
2023/07/06 05:39:21;;;;;;;;;;;;;;;;;;7374392;19;1500;-59
2023/07/06 05:41:50;;;;;;;;;;;;;;;;;;7371766;19;1757;-62
2023/07/06 05:44:18;;;;;;;;;;;;;;;;;;7371850;19;2033;-59
2023/07/06 05:46:46;;;;;;;;;;;;;;;;;;7372865;19;1867;-60
2023/07/06 05:49:14;;;;;;;;;;;;;;;;;;7368847;19;853;-60
2023/07/06 05:51:42;;;;;;;;;;;;;;;;;;7369777;19;825;-60
2023/07/06 05:54:11;;;;;;;;;;;;;;;;;;7368990;19;1336;-61
2023/07/06 05:56:40;;;;;;;;;;;;;;;;;;7369998;19;799;-60
2023/07/06 05:59:08;;;;;;;;;;;;;;;;;;7369451;19;901;-61
2023/07/06 06:01:36;;;;;;;;;;;;;;;;;;7369896;19;831;-61
2023/07/06 06:04:05;;;;;;;;;;;;;;;;;;7368134;19;1348;-61
2023/07/06 06:06:33;;;;;;;;;;;;;;;;;;7367525;19;1846;-61
2023/07/06 06:09:01;;;;;;;;;;;;;;;;;;7368887;19;840;-60
2023/07/06 06:11:33;;;;;;;;;;;;;;;;;;7369401;19;855;-60
2023/07/06 06:14:02;;;;;;;;;;;;;;;;;;7368770;19;1321;-61
2023/07/06 06:16:32;;;;;;;;;;;;;;;;;;7369408;19;828;-61
2023/07/06 06:19:00;;;;;;;;;;;;;;;;;;7367806;19;1002;-60
2023/07/06 06:21:29;;;;;;;;;;;;;;;;;;7368948;19;836;-62
2023/07/06 06:23:57;;;;;;;;;;;;;;;;;;7368577;19;1328;-61
2023/07/06 06:26:26;;;;;;;;;;;;;;;;;;7368748;19;1845;-61
2023/07/06 06:28:54;;;;;;;;;;;;;;;;;;7367866;19;796;-58
2023/07/06 06:31:22;;;;;;;;;;;;;;;;;;7368526;19;776;-57
2023/07/06 06:33:50;;;;;;;;;;;;;;;;;;7367242;19;1269;-56
2023/07/06 06:36:19;;;;;;;;;;;;;;;;;;7368472;19;875;-57
2023/07/06 06:38:47;;;;;;;;;;;;;;;;;;7366963;19;1817;-61
2023/07/06 06:41:15;;;;;;;;;;;;;;;;;;7370770;19;1964;-60
2023/07/06 06:43:44;;;;;;;;;;;;;;;;;;7366341;19;1268;-55
2023/07/06 06:46:12;;;;;;;;;;;;;;;;;;7367464;19;1854;-60
2023/07/06 06:48:40;;;;;;;;;;;;;;;;;;7366607;19;2075;-61
2023/07/06 06:51:09;;;;;;;;;;;;;;;;;;7370051;19;1828;-60
2023/07/06 06:53:39;;;;;;;;;;;;;;;;;;7369225;19;1296;-61
2023/07/06 06:56:07;;;;;;;;;;;;;;;;;;7368963;19;1583;-61
2023/07/06 06:58:35;;;;;;;;;;;;;;;;;;7370334;19;1631;-59
2023/07/06 07:01:03;;;;;;;;;;;;;;;;;;7367613;19;801;-61
2023/07/06 07:03:32;;;;;;;;;;;;;;;;;;7367087;19;1283;-61
2023/07/06 07:06:00;;;;;;;;;;;;;;;;;;7367758;19;1857;-59
2023/07/06 07:08:28;;;;;;;;;;;;;;;;;;7369201;19;1754;-61
2023/07/06 07:10:57;;;;;;;;;;;;;;;;;;7370175;19;1893;-60
2023/07/06 07:13:25;;;;;;;;;;;;;;;;;;7371050;19;1848;-61
2023/07/06 07:15:53;;;;;;;;;;;;;;;;;;7370047;19;1620;-61
2023/07/06 07:18:22;;;;;;;;;;;;;;;;;;7366533;19;765;-62
2023/07/06 07:20:51;;;;;;;;;;;;;;;;;;7367658;19;817;-60
2023/07/06 07:23:19;;;;;;;;;;;;;;;;;;7366257;19;2089;-60
2023/07/06 07:25:48;;;;;;;;;;;;;;;;;;7371039;19;1834;-60
2023/07/06 07:28:16;;;;;;;;;;;;;;;;;;7367580;19;800;-62
2023/07/06 07:30:46;;;;;;;;;;;;;;;;;;7368927;19;1443;-59
2023/07/06 07:33:14;;;;;;;;;;;;;;;;;;7368879;19;1651;-59
2023/07/06 07:35:43;;;;;;;;;;;;;;;;;;7375506;19;1451;-58
2023/07/06 07:38:11;;;;;;;;;;;;;;;;;;7370125;19;847;-62
2023/07/06 07:40:39;;;;;;;;;;;;;;;;;;7372937;19;1704;-59
2023/07/06 07:43:08;;;;;;;;;;;;;;;;;;7370895;19;1656;-64
2023/07/06 07:45:37;;;;;;;;;;;;;;;;;;7371455;19;1650;-59
2023/07/06 07:48:05;;;;;;;;;;;;;;;;;;7368352;19;1853;-62
2023/07/06 07:50:33;;;;;;;;;;;;;;;;;;7366595;19;829;-59
2023/07/06 07:53:02;;;;;;;;;;;;;;;;;;7367604;19;1648;-61
2023/07/06 07:55:30;;;;;;;;;;;;;;;;;;7367909;19;1766;-61
2023/07/06 07:57:58;;;;;;;;;;;;;;;;;;7369797;19;1649;-60
2023/07/06 08:00:26;;;;;;;;;;;;;;;;;;7366318;19;709;-59
2023/07/06 08:02:54;;;;;;;;;;;;;;;;;;7365454;19;1256;-61
2023/07/06 08:05:23;;;;;;;;;;;;;;;;;;7366078;19;845;-61
2023/07/06 08:07:51;;;;;;;;;;;;;;;;;;7362528;19;1838;-61
2023/07/06 08:10:19;;;;;;;;;;;;;;;;;;7365962;19;1745;-61
2023/07/06 08:12:48;;;;;;;;;;;;;;;;;;7369958;19;1427;-61
2023/07/06 08:15:16;;;;;;;;;;;;;;;;;;7364812;19;889;-61
2023/07/06 08:17:45;;;;;;;;;;;;;;;;;;7365958;19;825;-61
2023/07/06 08:20:13;;;;;;;;;;;;;;;;;;7365826;19;2045;-59
2023/07/06 08:22:42;;;;;;;;;;;;;;;;;;7369603;19;1476;-60
2023/07/06 08:25:10;;;;;;;;;;;;;;;;;;7370383;19;1596;-60
2023/07/06 08:27:39;;;;;;;;;;;;;;;;;;7365268;19;1873;-60
2023/07/06 08:30:07;;;;;;;;;;;;;;;;;;7366108;19;853;-63
2023/07/06 08:32:37;;;;;;;;;;;;;;;;;;7365443;19;798;-64
2023/07/06 08:35:05;;;;;;;;;;;;;;;;;;7365957;19;837;-59
2023/07/06 08:37:34;;;;;;;;;;;;;;;;;;7368232;19;1869;-59
2023/07/06 08:40:02;;;;;;;;;;;;;;;;;;7369764;19;1456;-56
2023/07/06 08:42:31;;;;;;;;;;;;;;;;;;7368944;19;1599;-58
2023/07/06 08:44:59;;;;;;;;;;;;;;;;;;7366662;19;1722;-59
2023/07/06 08:47:28;;;;;;;;;;;;;;;;;;7367201;19;1849;-60
2023/07/06 08:49:57;;;;;;;;;;;;;;;;;;7368268;19;1721;-59
2023/07/06 08:52:25;;;;;;;;;;;;;;;;;;7368921;19;1693;-57
2023/07/06 08:54:53;;;;;;;;;;;;;;;;;;7367775;19;1443;-54
2023/07/06 08:57:21;;;;;;;;;;;;;;;;;;7366405;19;741;-54
2023/07/06 08:59:50;;;;;;;;;;;;;;;;;;7364758;19;758;-58
2023/07/06 09:02:18;;;;;;;;;;;;;;;;;;7368851;19;1681;-58
2023/07/06 09:04:46;;;;;;;;;;;;;;;;;;7368117;19;1501;-58
2023/07/06 09:07:15;;;;;;;;;;;;;;;;;;7371203;19;1838;-60
2023/07/06 09:09:43;;;;;;;;;;;;;;;;;;7370841;19;849;-59
2023/07/06 09:12:13;;;;;;;;;;;;;;;;;;7368853;19;789;-58
2023/07/06 09:14:41;;;;;;;;;;;;;;;;;;7369636;19;1273;-59
2023/07/06 09:17:09;;;;;;;;;;;;;;;;;;7370248;19;789;-60
2023/07/06 09:19:38;;;;;;;;;;;;;;;;;;7369507;19;759;-61
2023/07/06 09:22:06;;;;;;;;;;;;;;;;;;7370442;19;788;-60
2023/07/06 09:24:34;;;;;;;;;;;;;;;;;;7368205;19;1328;-61
2023/07/06 09:27:03;;;;;;;;;;;;;;;;;;7369387;19;1845;-60
2023/07/06 09:29:31;;;;;;;;;;;;;;;;;;7369688;19;824;-60
2023/07/06 09:31:59;;;;;;;;;;;;;;;;;;7370126;19;820;-59
2023/07/06 09:34:28;;;;;;;;;;;;;;;;;;7368455;19;1272;-59
2023/07/06 09:36:56;;;;;;;;;;;;;;;;;;7369729;19;702;-60
2023/07/06 09:39:25;;;;;;;;;;;;;;;;;;7368572;19;844;-59
2023/07/06 09:41:53;;;;;;;;;;;;;;;;;;7369934;19;687;-59
2023/07/06 09:44:21;;;;;;;;;;;;;;;;;;7367859;19;1281;-60
2023/07/06 09:46:50;;;;;;;;;;;;;;;;;;7369412;19;1869;-60
2023/07/06 09:49:18;;;;;;;;;;;;;;;;;;7369061;19;838;-61
2023/07/06 09:51:46;;;;;;;;;;;;;;;;;;7369418;19;941;-62
2023/07/06 09:54:14;;;;;;;;;;;;;;;;;;7368324;19;1332;-61
2023/07/06 09:56:43;;;;;;;;;;;;;;;;;;7369209;19;857;-61
2023/07/06 09:59:11;;;;;;;;;;;;;;;;;;7368569;19;865;-59
2023/07/06 10:01:39;;;;;;;;;;;;;;;;;;7369290;19;856;-61
2023/07/06 10:04:07;;;;;;;;;;;;;;;;;;7367859;19;1281;-61
2023/07/06 10:06:35;;;;;;;;;;;;;;;;;;7369026;19;1837;-61
2023/07/06 10:09:03;;;;;;;;;;;;;;;;;;7368787;19;762;-61
2023/07/06 10:11:34;;;;;;;;;;;;;;;;;;7369404;19;770;-61
2023/07/06 10:14:04;;;;;;;;;;;;;;;;;;7367514;19;1315;-62
2023/07/06 10:16:32;;;;;;;;;;;;;;;;;;7365194;19;840;-60
2023/07/06 10:19:00;;;;;;;;;;;;;;;;;;7367216;19;789;-60
2023/07/06 10:21:28;;;;;;;;;;;;;;;;;;7368830;19;846;-61
2023/07/06 10:23:56;;;;;;;;;;;;;;;;;;7367962;19;1383;-62
2023/07/06 10:26:26;;;;;;;;;;;;;;;;;;7369503;19;798;-61
2023/07/06 10:28:54;;;;;;;;;;;;;;;;;;7365213;19;1833;-62
2023/07/06 10:31:22;;;;;;;;;;;;;;;;;;7368154;19;796;-60
2023/07/06 10:33:50;;;;;;;;;;;;;;;;;;7366918;19;1263;-61
2023/07/06 10:36:18;;;;;;;;;;;;;;;;;;7367887;19;812;-60
2023/07/06 10:38:46;;;;;;;;;;;;;;;;;;7367457;19;810;-59
2023/07/06 10:41:18;;;;;;;;;;;;;;;;;;7367953;19;824;-61
2023/07/06 10:43:48;;;;;;;;;;;;;;;;;;7365967;19;1332;-61
2023/07/06 10:46:17;;;;;;;;;;;;;;;;;;7367936;19;742;-61
2023/07/06 10:48:45;;;;;;;;;;;;;;;;;;7363601;19;1839;-61
2023/07/06 10:51:14;;;;;;;;;;;;;;;;;;7368873;19;920;-61
2023/07/06 10:53:42;;;;;;;;;;;;;;;;;;7367207;19;1285;-62
2023/07/06 10:56:10;;;;;;;;;;;;;;;;;;7367514;19;801;-61
2023/07/06 10:58:38;;;;;;;;;;;;;;;;;;7367748;19;1473;-61
2023/07/06 11:01:06;;;;;;;;;;;;;;;;;;7370697;19;1837;-63
2023/07/06 11:03:34;;;;;;;;;;;;;;;;;;7369735;19;1593;-61
2023/07/06 11:06:05;;;;;;;;;;;;;;;;;;7371686;19;1302;-61
2023/07/06 11:08:33;;;;;;;;;;;;;;;;;;7366047;19;1842;-60
2023/07/06 11:11:02;;;;;;;;;;;;;;;;;;7371061;19;1897;-62
2023/07/06 11:13:32;;;;;;;;;;;;;;;;;;7366245;19;1402;-60
2023/07/06 11:16:04;;;;;;;;;;;;;;;;;;7367037;19;1966;-62
2023/07/06 11:18:33;;;;;;;;;;;;;;;;;;7367009;19;1817;-61
2023/07/06 11:21:02;;;;;;;;;;;;;;;;;;7369467;19;1707;-62
2023/07/06 11:23:30;;;;;;;;;;;;;;;;;;7368071;19;1721;-63
2023/07/06 11:25:59;;;;;;;;;;;;;;;;;;7370118;19;1726;-58
2023/07/06 11:28:27;;;;;;;;;;;;;;;;;;7367404;19;1861;-61
2023/07/06 11:30:55;;;;;;;;;;;;;;;;;;7367012;19;819;-62
2023/07/06 11:33:24;;;;;;;;;;;;;;;;;;7366179;19;1321;-61
2023/07/06 11:35:52;;;;;;;;;;;;;;;;;;7367099;19;828;-61
2023/07/06 11:38:20;;;;;;;;;;;;;;;;;;7366483;19;811;-60
2023/07/06 11:40:49;;;;;;;;;;;;;;;;;;7367802;19;1443;-60
2023/07/06 11:43:17;;;;;;;;;;;;;;;;;;7365485;19;1276;-61
2023/07/06 11:45:45;;;;;;;;;;;;;;;;;;7367706;19;782;-61
2023/07/06 11:48:13;;;;;;;;;;;;;;;;;;7364209;19;1888;-61
2023/07/06 11:50:41;;;;;;;;;;;;;;;;;;7367235;19;841;-64
2023/07/06 11:53:17;;;;;;;;;;;;;;;;;;7364848;19;1272;-62
2023/07/06 11:55:54;;;;;;;;;;;;;;;;;;7367101;19;773;-61
2023/07/06 11:58:42;;;;;;;;;;;;;;;;;;7366961;19;1833;-60
2023/07/06 12:01:21;;;;;;;;;;;;;;;;;;7369021;19;1907;-62
2023/07/06 12:03:49;;;;;;;;;;;;;;;;;;7368328;19;1631;-63
2023/07/06 12:06:18;;;;;;;;;;;;;;;;;;7369008;19;1460;-61
2023/07/06 12:08:46;;;;;;;;;;;;;;;;;;7363431;19;1842;-61
2023/07/06 12:11:15;;;;;;;;;;;;;;;;;;7366227;19;859;-61
2023/07/06 12:13:43;;;;;;;;;;;;;;;;;;7364179;19;1994;-60
2023/07/06 12:16:13;;;;;;;;;;;;;;;;;;7369988;19;1820;-61
2023/07/06 12:18:41;;;;;;;;;;;;;;;;;;7367405;19;1602;-62
2023/07/06 12:21:10;;;;;;;;;;;;;;;;;;7369163;19;1784;-57
2023/07/06 12:23:38;;;;;;;;;;;;;;;;;;7368744;19;1939;-59
2023/07/06 12:26:07;;;;;;;;;;;;;;;;;;7365352;19;852;-56
2023/07/06 12:28:35;;;;;;;;;;;;;;;;;;7365124;19;2066;-58
2023/07/06 12:31:03;;;;;;;;;;;;;;;;;;7370208;19;1689;-61
2023/07/06 12:33:33;;;;;;;;;;;;;;;;;;7364403;19;1227;-59
2023/07/06 12:36:01;;;;;;;;;;;;;;;;;;7369083;19;2114;-57
2023/07/06 12:38:29;;;;;;;;;;;;;;;;;;7366532;19;1656;-55
2023/07/06 12:40:57;;;;;;;;;;;;;;;;;;7367506;19;1684;-55
2023/07/06 12:43:25;;;;;;;;;;;;;;;;;;7364215;19;1286;-55
2023/07/06 12:45:54;;;;;;;;;;;;;;;;;;7366342;19;786;-55
2023/07/06 12:48:23;;;;;;;;;;;;;;;;;;7363266;19;1850;-60
2023/07/06 12:50:52;;;;;;;;;;;;;;;;;;7364527;19;791;-61
2023/07/06 12:53:22;;;;;;;;;;;;;;;;;;7367258;19;1983;-61
2023/07/06 12:55:52;;;;;;;;;;;;;;;;;;7367337;19;1704;-60
2023/07/06 12:58:20;;;;;;;;;;;;;;;;;;7366099;19;1570;-61
2023/07/06 13:00:49;;;;;;;;;;;;;;;;;;7367242;19;1574;-61
2023/07/06 13:03:17;;;;;;;;;;;;;;;;;;7366348;19;1774;-61
2023/07/06 13:05:45;;;;;;;;;;;;;;;;;;7368305;19;1699;-59
2023/07/06 13:08:14;;;;;;;;;;;;;;;;;;7362902;19;1842;-59
2023/07/06 13:10:42;;;;;;;;;;;;;;;;;;7363379;19;1206;-62
2023/07/06 13:13:10;;;;;;;;;;;;;;;;;;7366616;19;1409;-60
2023/07/06 13:15:39;;;;;;;;;;;;;;;;;;7367839;19;1477;-60
2023/07/06 13:18:08;;;;;;;;;;;;;;;;;;7363579;19;836;-60
2023/07/06 13:20:37;;;;;;;;;;;;;;;;;;7363793;19;916;-61
2023/07/06 13:23:06;;;;;;;;;;;;;;;;;;7363404;19;1407;-61
2023/07/06 13:25:34;;;;;;;;;;;;;;;;;;7363521;19;1695;-59
2023/07/06 13:28:02;;;;;;;;;;;;;;;;;;7367374;19;1863;-62
2023/07/06 13:30:31;;;;;;;;;;;;;;;;;;7363484;19;814;-63
2023/07/06 13:32:59;;;;;;;;;;;;;;;;;;7366579;19;1931;-62
2023/07/06 13:35:28;;;;;;;;;;;;;;;;;;7366322;19;1298;-60
2023/07/06 13:37:56;;;;;;;;;;;;;;;;;;7367923;19;1680;-61
2023/07/06 13:40:24;;;;;;;;;;;;;;;;;;7362554;19;872;-60
2023/07/06 13:42:53;;;;;;;;;;;;;;;;;;7362272;19;1997;-62
2023/07/06 13:45:23;;;;;;;;;;;;;;;;;;7362564;19;1916;-61
2023/07/06 13:47:52;;;;;;;;;;;;;;;;;;7365496;19;1921;-62
2023/07/06 13:50:20;;;;;;;;;;;;;;;;;;7365462;19;1731;-60
2023/07/06 13:52:48;;;;;;;;;;;;;;;;;;7365935;19;1290;-61
2023/07/06 13:55:18;;;;;;;;;;;;;;;;;;7369358;19;1824;-62
2023/07/06 13:57:46;;;;;;;;;;;;;;;;;;7371174;19;1704;-62
2023/07/06 14:00:14;;;;;;;;;;;;;;;;;;7371999;19;1636;-61
2023/07/06 14:02:43;;;;;;;;;;;;;;;;;;7373052;19;1682;-61
2023/07/06 14:05:12;;;;;;;;;;;;;;;;;;7369165;19;795;-62
2023/07/06 14:07:40;;;;;;;;;;;;;;;;;;7370711;19;1866;-60
2023/07/06 14:10:08;;;;;;;;;;;;;;;;;;7369925;19;2200;-63
2023/07/06 14:12:36;;;;;;;;;;;;;;;;;;7373085;19;1478;-62
2023/07/06 14:15:08;;;;;;;;;;;;;;;;;;7367260;19;1337;-62
2023/07/06 14:17:36;;;;;;;;;;;;;;;;;;7371173;19;1703;-62
2023/07/06 14:20:05;;;;;;;;;;;;;;;;;;7372416;19;1457;-61
2023/07/06 14:22:33;;;;;;;;;;;;;;;;;;7368837;19;917;-62
2023/07/06 14:25:02;;;;;;;;;;;;;;;;;;7366041;19;1237;-62
2023/07/06 14:27:30;;;;;;;;;;;;;;;;;;7369519;19;1621;-62
2023/07/06 14:29:58;;;;;;;;;;;;;;;;;;7368441;19;1859;-62
2023/07/06 14:32:27;;;;;;;;;;;;;;;;;;7371377;19;1626;-61
2023/07/06 14:34:55;;;;;;;;;;;;;;;;;;7367637;19;2011;-62
2023/07/06 14:37:23;;;;;;;;;;;;;;;;;;7371372;19;1310;-61
2023/07/06 14:39:53;;;;;;;;;;;;;;;;;;7368111;19;868;-61
2023/07/06 14:42:21;;;;;;;;;;;;;;;;;;7371777;19;1677;-62
2023/07/06 14:44:49;;;;;;;;;;;;;;;;;;7369965;19;1741;-59
2023/07/06 14:47:17;;;;;;;;;;;;;;;;;;7370927;19;1662;-61
2023/07/06 14:49:45;;;;;;;;;;;;;;;;;;7369182;19;1861;-62
2023/07/06 14:52:14;;;;;;;;;;;;;;;;;;7368704;19;765;-63
2023/07/06 14:54:42;;;;;;;;;;;;;;;;;;7366497;19;1327;-62
2023/07/06 14:57:11;;;;;;;;;;;;;;;;;;7368496;19;1450;-63
2023/07/06 14:59:39;;;;;;;;;;;;;;;;;;7370903;19;1225;-63
2023/07/06 15:02:07;;;;;;;;;;;;;;;;;;7367699;19;1755;-63
2023/07/06 15:04:35;;;;;;;;;;;;;;;;;;7370912;19;1380;-62
2023/07/06 15:07:03;;;;;;;;;;;;;;;;;;7371033;19;1854;-62
2023/07/06 15:09:31;;;;;;;;;;;;;;;;;;7369376;19;1842;-61
2023/07/06 15:11:59;;;;;;;;;;;;;;;;;;7372499;19;1436;-63
2023/07/06 15:14:27;;;;;;;;;;;;;;;;;;7366374;19;1311;-62
2023/07/06 15:16:56;;;;;;;;;;;;;;;;;;7368784;19;2011;-61
2023/07/06 15:19:24;;;;;;;;;;;;;;;;;;7369519;19;1790;-59
2023/07/06 15:21:52;;;;;;;;;;;;;;;;;;7370485;19;1743;-62
2023/07/06 15:24:20;;;;;;;;;;;;;;;;;;7368327;19;2221;-62
2023/07/06 15:26:49;;;;;;;;;;;;;;;;;;7367469;19;2023;-61
2023/07/06 15:29:17;;;;;;;;;;;;;;;;;;7367938;19;1864;-63
2023/07/06 15:31:45;;;;;;;;;;;;;;;;;;7367509;19;698;-61
2023/07/06 15:34:14;;;;;;;;;;;;;;;;;;7367818;19;2134;-60
2023/07/06 15:36:42;;;;;;;;;;;;;;;;;;7370025;19;1661;-62
2023/07/06 15:39:10;;;;;;;;;;;;;;;;;;7368674;19;1468;-62
2023/07/06 15:41:38;;;;;;;;;;;;;;;;;;7367620;19;2352;-62
2023/07/06 15:44:06;;;;;;;;;;;;;;;;;;7366529;19;1658;-61
2023/07/06 15:46:34;;;;;;;;;;;;;;;;;;7363516;19;797;-61
2023/07/06 15:49:02;;;;;;;;;;;;;;;;;;7365477;19;1861;-65
2023/07/06 15:51:31;;;;;;;;;;;;;;;;;;7367992;19;695;-68
2023/07/06 15:53:59;;;;;;;;;;;;;;;;;;7367119;19;1332;-60
2023/07/06 15:56:27;;;;;;;;;;;;;;;;;;7370100;19;804;-61
2023/07/06 15:58:55;;;;;;;;;;;;;;;;;;7367369;19;841;-61
2023/07/06 16:01:23;;;;;;;;;;;;;;;;;;7367361;19;809;-59
2023/07/06 16:03:51;;;;;;;;;;;;;;;;;;7366503;19;1294;-62
2023/07/06 16:06:19;;;;;;;;;;;;;;;;;;7367719;19;859;-62
2023/07/06 16:08:48;;;;;;;;;;;;;;;;;;7366580;19;1859;-63
2023/07/06 16:11:16;;;;;;;;;;;;;;;;;;7367221;19;814;-62
2023/07/06 16:13:44;;;;;;;;;;;;;;;;;;7364580;19;1287;-58
2023/07/06 16:16:12;;;;;;;;;;;;;;;;;;7365267;19;1000;-61
2023/07/06 16:18:40;;;;;;;;;;;;;;;;;;7366118;19;861;-63
2023/07/06 16:21:08;;;;;;;;;;;;;;;;;;7365533;19;808;-63
2023/07/06 16:23:36;;;;;;;;;;;;;;;;;;7363937;19;1338;-63
2023/07/06 16:26:05;;;;;;;;;;;;;;;;;;7365259;19;820;-62
2023/07/06 16:28:33;;;;;;;;;;;;;;;;;;7364516;19;1849;-63
2023/07/06 16:31:01;;;;;;;;;;;;;;;;;;7365014;19;858;-62
2023/07/06 16:33:29;;;;;;;;;;;;;;;;;;7364342;19;1325;-62
2023/07/06 16:35:57;;;;;;;;;;;;;;;;;;7365508;19;851;-63
2023/07/06 16:38:25;;;;;;;;;;;;;;;;;;7364861;19;819;-63
2023/07/06 16:40:53;;;;;;;;;;;;;;;;;;7364920;19;820;-59
2023/07/06 16:43:21;;;;;;;;;;;;;;;;;;7363949;19;1291;-59
2023/07/06 16:45:50;;;;;;;;;;;;;;;;;;7365843;19;816;-60
2023/07/06 16:48:18;;;;;;;;;;;;;;;;;;7364291;19;779;-61
2023/07/06 16:50:46;;;;;;;;;;;;;;;;;;7361335;19;1896;-61
2023/07/06 16:53:14;;;;;;;;;;;;;;;;;;7364005;19;1337;-60
2023/07/06 16:55:42;;;;;;;;;;;;;;;;;;7364546;19;852;-60
2023/07/06 16:58:10;;;;;;;;;;;;;;;;;;7363684;19;819;-58
2023/07/06 17:00:38;;;;;;;;;;;;;;;;;;7364970;19;1103;-61
2023/07/06 17:03:07;;;;;;;;;;;;;;;;;;7362974;19;1322;-61
2023/07/06 17:05:35;;;;;;;;;;;;;;;;;;7363909;19;872;-61
2023/07/06 17:08:03;;;;;;;;;;;;;;;;;;7363967;19;827;-60
2023/07/06 17:10:31;;;;;;;;;;;;;;;;;;7361742;19;1845;-62
2023/07/06 17:12:59;;;;;;;;;;;;;;;;;;7364067;19;1285;-61
2023/07/06 17:15:27;;;;;;;;;;;;;;;;;;7364289;19;889;-61
2023/07/06 17:17:56;;;;;;;;;;;;;;;;;;7364098;19;861;-61